createdAt,value
2023-06-05T00:02:15.498Z,3.10
2023-06-05T00:04:42.271Z,2.88
2023-06-05T00:07:09.044Z,3.50
2023-06-05T00:09:36.157Z,3.10
2023-06-05T00:12:02.930Z,3.20
2023-06-05T00:14:29.592Z,3.25
2023-06-05T00:16:56.424Z,3.17
2023-06-05T00:19:23.312Z,3.10
2023-06-05T00:21:50.092Z,2.95
2023-06-05T00:24:17.116Z,2.60
2023-06-05T00:26:44.049Z,3.00
2023-06-05T00:29:10.929Z,3.22
2023-06-05T00:31:37.718Z,2.90
2023-06-05T00:34:04.399Z,2.78
2023-06-05T00:36:33.418Z,3.10
2023-06-05T00:39:00.089Z,3.33
2023-06-05T00:41:27.003Z,2.92
2023-06-05T00:43:53.738Z,3.13
2023-06-05T00:46:20.662Z,2.92
2023-06-05T00:48:47.780Z,3.20
2023-06-05T00:51:17.813Z,3.35
2023-06-05T00:53:48.337Z,3.10
2023-06-05T00:56:17.368Z,3.60
2023-06-05T00:58:44.164Z,3.17
2023-06-05T01:01:12.542Z,3.40
2023-06-05T01:03:39.670Z,3.60
2023-06-05T01:06:06.648Z,3.08
2023-06-05T01:08:35.049Z,3.10
2023-06-05T01:11:04.526Z,3.85
2023-06-05T01:13:36.265Z,3.17
2023-06-05T01:16:03.841Z,3.30
2023-06-05T01:18:30.772Z,3.30
2023-06-05T01:21:02.074Z,3.70
2023-06-05T01:23:29.134Z,3.17
2023-06-05T01:26:02.523Z,3.70
2023-06-05T01:28:31.926Z,3.47
2023-06-05T01:31:11.615Z,3.80
2023-06-05T01:34:10.366Z,3.90
2023-06-05T01:36:38.859Z,3.63
2023-06-05T01:39:06.337Z,3.20
2023-06-05T01:41:34.447Z,3.60
2023-06-05T01:44:02.305Z,3.10
2023-06-05T01:46:30.196Z,3.42
2023-06-05T01:48:57.621Z,4.07
2023-06-05T01:51:24.317Z,4.23
2023-06-05T01:53:51.023Z,3.50
2023-06-05T01:56:18.020Z,3.30
2023-06-05T01:58:44.789Z,3.67
2023-06-05T02:01:11.432Z,3.45
2023-06-05T02:03:38.361Z,3.43
2023-06-05T02:06:05.401Z,3.50
2023-06-05T02:08:32.214Z,3.47
2023-06-05T02:10:58.904Z,3.58
2023-06-05T02:13:25.631Z,3.67
2023-06-05T02:15:52.274Z,3.57
2023-06-05T02:18:19.223Z,3.30
2023-06-05T02:20:46.069Z,3.90
2023-06-05T02:23:12.832Z,3.65
2023-06-05T02:25:39.544Z,3.70
2023-06-05T02:28:06.345Z,4.17
2023-06-05T02:30:33.209Z,3.92
2023-06-05T02:32:59.878Z,3.50
2023-06-05T02:35:26.629Z,3.33
2023-06-05T02:37:53.543Z,3.38
2023-06-05T02:40:20.514Z,3.13
2023-06-05T02:42:47.214Z,3.92
2023-06-05T02:45:14.198Z,3.20
2023-06-05T02:47:40.952Z,3.28
2023-06-05T02:50:08.673Z,3.40
2023-06-05T02:52:35.378Z,3.20
2023-06-05T02:55:05.404Z,2.97
2023-06-05T02:57:32.515Z,3.58
2023-06-05T02:59:59.484Z,2.85
2023-06-05T03:02:26.572Z,3.13
2023-06-05T03:04:53.309Z,3.10
2023-06-05T03:07:23.268Z,3.30
2023-06-05T03:09:50.055Z,3.22
2023-06-05T03:12:16.737Z,3.00
2023-06-05T03:14:43.463Z,3.22
2023-06-05T03:17:10.136Z,3.23
2023-06-05T03:19:37.005Z,3.13
2023-06-05T03:22:03.988Z,2.97
2023-06-05T03:24:30.816Z,3.58
2023-06-05T03:26:57.494Z,3.22
2023-06-05T03:29:24.447Z,3.43
2023-06-05T03:31:51.445Z,3.28
2023-06-05T03:34:18.104Z,3.55
2023-06-05T03:36:44.806Z,3.25
2023-06-05T03:39:11.462Z,3.28
2023-06-05T03:41:38.153Z,3.10
2023-06-05T03:44:05.105Z,3.38
2023-06-05T03:46:32.035Z,3.10
2023-06-05T03:48:58.745Z,3.72
2023-06-05T03:51:26.899Z,3.40
2023-06-05T03:53:53.599Z,3.87
2023-06-05T03:56:22.861Z,3.25
2023-06-05T03:58:49.539Z,3.33
2023-06-05T04:01:16.287Z,3.20
2023-06-05T04:03:43.271Z,3.63
2023-06-05T04:06:10.078Z,3.17
2023-06-05T04:08:36.852Z,3.10
2023-06-05T04:11:03.535Z,3.63
2023-06-05T04:13:30.362Z,3.20
2023-06-05T04:15:57.312Z,3.60
2023-06-05T04:18:24.191Z,3.60
2023-06-05T04:20:50.930Z,3.45
2023-06-05T04:23:17.823Z,3.40
2023-06-05T04:25:44.512Z,2.95
2023-06-05T04:28:11.398Z,3.60
2023-06-05T04:30:38.524Z,3.50
2023-06-05T04:33:05.482Z,3.70
2023-06-05T04:35:32.278Z,3.40
2023-06-05T04:37:59.205Z,3.50
2023-06-05T04:40:26.269Z,3.13
2023-06-05T04:42:53.019Z,3.70
2023-06-05T04:45:19.865Z,3.35
2023-06-05T04:47:46.811Z,3.20
2023-06-05T04:50:27.928Z,3.40
2023-06-05T04:52:55.007Z,3.25
2023-06-05T04:55:22.440Z,3.20
2023-06-05T04:57:49.477Z,3.17
2023-06-05T05:00:19.234Z,2.90
2023-06-05T05:02:46.487Z,3.50
2023-06-05T05:05:13.417Z,3.88
2023-06-05T05:07:43.421Z,3.00
2023-06-05T05:10:11.182Z,3.22
2023-06-05T05:12:38.427Z,2.70
2023-06-05T05:15:06.297Z,2.85
2023-06-05T05:17:33.218Z,2.67
2023-06-05T05:19:59.990Z,2.80
2023-06-05T05:22:27.887Z,2.95
2023-06-05T05:24:54.981Z,4.13
2023-06-05T05:27:21.801Z,2.58
2023-06-05T05:29:51.214Z,2.70
2023-06-05T05:32:20.521Z,2.83
2023-06-05T05:34:47.311Z,2.70
2023-06-05T05:37:14.567Z,3.10
2023-06-05T05:39:46.829Z,2.65
2023-06-05T05:42:17.094Z,2.63
2023-06-05T05:47:24.659Z,2.80
2023-06-05T05:49:51.392Z,2.60
2023-06-05T05:52:20.428Z,2.90
2023-06-05T05:54:47.183Z,2.70
2023-06-05T05:57:15.280Z,2.73
2023-06-05T05:59:42.220Z,3.00
2023-06-05T06:02:12.656Z,2.85
2023-06-05T06:04:42.586Z,3.22
2023-06-05T06:07:09.431Z,2.85
2023-06-05T06:09:40.767Z,3.10
2023-06-05T06:12:08.013Z,2.40
2023-06-05T06:14:36.020Z,2.60
2023-06-05T06:17:03.674Z,3.00
2023-06-05T06:19:30.462Z,2.63
2023-06-05T06:22:03.012Z,2.80
2023-06-05T06:24:31.426Z,2.60
2023-06-05T06:26:58.900Z,2.90
2023-06-05T06:29:28.333Z,2.85
2023-06-05T06:31:55.104Z,2.63
2023-06-05T06:34:22.164Z,2.80
2023-06-05T06:36:49.009Z,2.60
2023-06-05T06:39:15.878Z,2.22
2023-06-05T06:41:42.692Z,2.75
2023-06-05T06:44:09.611Z,2.63
2023-06-05T06:46:41.302Z,2.47
2023-06-05T06:49:11.100Z,2.70
2023-06-05T06:51:37.864Z,2.50
2023-06-05T06:54:04.576Z,2.50
2023-06-05T06:56:31.281Z,2.60
2023-06-05T06:58:58.042Z,2.57
2023-06-05T07:01:25.135Z,2.65
2023-06-05T07:03:55.180Z,2.42
2023-06-05T07:06:24.679Z,2.33
2023-06-05T07:08:56.580Z,2.53
2023-06-05T07:11:27.062Z,2.37
2023-06-05T07:13:54.286Z,2.53
2023-06-05T07:16:24.559Z,2.35
2023-06-05T07:18:54.320Z,2.00
2023-06-05T07:21:26.390Z,2.22
2023-06-05T07:23:55.319Z,2.20
2023-06-05T07:26:22.238Z,2.10
2023-06-05T07:28:49.160Z,2.10
2023-06-05T07:31:22.296Z,1.80
2023-06-05T07:33:50.069Z,2.75
2023-06-05T07:36:17.096Z,2.20
2023-06-05T07:38:43.769Z,2.63
2023-06-05T07:41:12.454Z,2.28
2023-06-05T07:43:42.419Z,2.42
2023-06-05T07:46:09.252Z,2.60
2023-06-05T07:48:38.771Z,2.23
2023-06-05T07:51:05.549Z,2.40
2023-06-05T07:53:36.548Z,2.30
2023-06-05T07:56:03.885Z,2.50
2023-06-05T07:58:39.716Z,2.50
2023-06-05T08:01:06.395Z,2.43
2023-06-05T08:03:33.231Z,2.40
2023-06-05T08:06:00.255Z,2.78
2023-06-05T08:08:29.396Z,2.38
2023-06-05T08:11:06.950Z,2.65
2023-06-05T08:13:33.862Z,2.43
2023-06-05T08:16:00.780Z,2.60
2023-06-05T08:18:32.884Z,2.70
2023-06-05T08:20:59.753Z,2.22
2023-06-05T08:23:31.261Z,2.22
2023-06-05T08:26:08.140Z,3.00
2023-06-05T08:28:35.009Z,2.78
2023-06-05T08:31:01.916Z,2.55
2023-06-05T08:33:33.789Z,2.20
2023-06-05T08:36:05.968Z,2.53
2023-06-05T08:38:36.124Z,2.50
2023-06-05T08:41:15.204Z,2.75
2023-06-05T08:43:42.093Z,2.33
2023-06-05T08:46:14.456Z,2.40
2023-06-05T08:48:50.832Z,2.30
2023-06-05T08:51:22.271Z,2.70
2023-06-05T08:54:04.147Z,2.22
2023-06-05T08:56:32.704Z,2.30
2023-06-05T08:59:02.401Z,2.20
2023-06-05T09:01:30.925Z,2.33
2023-06-05T09:03:59.175Z,2.20
2023-06-05T09:06:25.947Z,2.28
2023-06-05T09:08:52.772Z,2.45
2023-06-05T09:11:29.370Z,2.00
2023-06-05T09:13:58.465Z,2.10
2023-06-05T09:16:44.996Z,2.37
2023-06-05T09:19:12.787Z,2.30
2023-06-05T09:22:32.791Z,2.30
2023-06-05T09:24:59.658Z,2.00
2023-06-05T09:27:26.614Z,2.30
2023-06-05T09:30:03.970Z,2.00
2023-06-05T09:32:30.870Z,2.45
2023-06-05T09:34:58.176Z,2.42
2023-06-05T09:37:37.331Z,2.40
2023-06-05T09:40:05.522Z,2.10
2023-06-05T09:42:33.281Z,2.60
2023-06-05T09:45:01.545Z,2.30
2023-06-05T09:47:33.137Z,2.30
2023-06-05T09:50:06.016Z,2.60
2023-06-05T09:52:36.155Z,2.05
2023-06-05T09:55:09.365Z,2.20
2023-06-05T09:57:43.487Z,2.20
2023-06-05T10:00:19.905Z,2.15
2023-06-05T10:02:55.370Z,2.85
2023-06-05T10:05:27.938Z,2.35
2023-06-05T10:07:55.002Z,2.47
2023-06-05T10:10:25.927Z,2.30
2023-06-05T10:12:55.704Z,2.15
2023-06-05T10:15:24.983Z,2.17
2023-06-05T10:17:57.129Z,2.30
2023-06-05T10:20:26.377Z,2.00
2023-06-05T10:22:54.177Z,2.00
2023-06-05T10:25:24.892Z,2.70
2023-06-05T10:28:19.170Z,2.60
2023-06-05T10:31:07.437Z,2.30
2023-06-05T10:33:45.687Z,1.87
2023-06-05T10:36:35.655Z,2.30
2023-06-05T10:39:03.854Z,2.67
2023-06-05T10:41:33.430Z,2.10
2023-06-05T10:44:01.476Z,2.25
2023-06-05T10:46:28.199Z,2.17
2023-06-05T10:49:17.302Z,2.10
2023-06-05T10:51:57.504Z,2.00
2023-06-05T10:54:24.305Z,2.58
2023-06-05T10:56:57.322Z,2.10
2023-06-05T10:59:26.382Z,2.17
2023-06-05T11:02:16.172Z,2.40
2023-06-05T11:04:45.555Z,2.20
2023-06-05T11:07:18.785Z,2.30
2023-06-05T11:10:03.503Z,2.28
2023-06-05T11:12:36.869Z,2.27
2023-06-05T11:15:11.356Z,2.50
2023-06-05T11:17:48.397Z,2.40
2023-06-05T11:20:24.510Z,2.20
2023-06-05T11:22:56.263Z,2.60
2023-06-05T11:25:22.879Z,2.33
2023-06-05T11:27:50.540Z,2.30
2023-06-05T11:30:28.017Z,2.17
2023-06-05T11:32:58.180Z,2.30
2023-06-05T11:35:29.273Z,2.30
2023-06-05T11:38:23.693Z,2.13
2023-06-05T11:40:51.233Z,2.47
2023-06-05T11:43:18.057Z,2.40
2023-06-05T11:46:05.052Z,2.85
2023-06-05T11:48:43.396Z,2.30
2023-06-05T11:51:10.268Z,2.13
2023-06-05T11:53:44.021Z,2.00
2023-06-05T11:56:15.245Z,2.40
2023-06-05T11:58:42.776Z,2.35
2023-06-05T12:01:19.799Z,2.38
2023-06-05T12:04:07.564Z,2.30
2023-06-05T12:06:46.000Z,2.60
2023-06-05T12:09:13.819Z,2.30
2023-06-05T12:11:42.263Z,2.33
2023-06-05T12:14:10.856Z,2.35
2023-06-05T12:16:46.258Z,2.07
2023-06-05T12:19:22.016Z,2.10
2023-06-05T12:22:03.391Z,2.40
2023-06-05T12:24:30.243Z,2.30
2023-06-05T12:26:59.594Z,2.67
2023-06-05T12:29:34.837Z,2.40
2023-06-05T12:32:03.579Z,2.60
2023-06-05T12:34:56.928Z,2.40
2023-06-05T12:37:36.236Z,2.60
2023-06-05T12:40:06.750Z,2.38
2023-06-05T12:42:36.942Z,2.43
2023-06-05T12:45:07.822Z,2.33
2023-06-05T12:47:35.411Z,2.70
2023-06-05T12:50:07.773Z,2.88
2023-06-05T12:52:35.212Z,2.50
2023-06-05T12:55:02.527Z,2.67
2023-06-05T12:57:29.271Z,2.30
2023-06-05T13:00:02.103Z,2.97
2023-06-05T13:02:28.952Z,5.63
2023-06-05T13:04:55.944Z,3.60
2023-06-05T13:07:25.716Z,2.40
2023-06-05T13:09:57.194Z,2.80
2023-06-05T13:12:23.969Z,2.38
2023-06-05T13:14:50.756Z,2.60
2023-06-05T13:17:20.665Z,2.90
2023-06-05T13:19:47.744Z,2.50
2023-06-05T13:22:14.695Z,2.47
2023-06-05T13:24:41.372Z,2.60
2023-06-05T13:27:08.159Z,2.30
2023-06-05T13:29:35.134Z,2.22
2023-06-05T13:32:01.998Z,2.27
2023-06-05T13:34:30.310Z,2.75
2023-06-05T13:37:02.679Z,2.60
2023-06-05T13:39:37.073Z,2.45
2023-06-05T13:42:04.003Z,2.60
2023-06-05T13:44:33.501Z,2.33
2023-06-05T13:47:02.402Z,2.40
2023-06-05T13:49:29.552Z,2.88
2023-06-05T13:51:56.475Z,2.60
2023-06-05T13:54:23.715Z,2.40
2023-06-05T13:56:50.624Z,2.53
2023-06-05T13:59:17.576Z,3.10
2023-06-05T14:01:44.330Z,2.90
2023-06-05T14:04:11.522Z,3.00
2023-06-05T14:06:38.260Z,2.70
2023-06-05T14:09:05.662Z,2.50
2023-06-05T14:11:32.829Z,2.45
2023-06-05T14:13:59.597Z,2.70
2023-06-05T14:16:27.319Z,3.03
2023-06-05T14:18:54.078Z,2.75
2023-06-05T14:21:23.260Z,2.60
2023-06-05T14:23:51.247Z,2.63
2023-06-05T14:26:21.140Z,2.38
2023-06-05T14:28:47.823Z,2.92
2023-06-05T14:31:16.586Z,2.72
2023-06-05T14:33:43.563Z,2.90
2023-06-05T14:36:10.511Z,2.33
2023-06-05T14:38:37.669Z,2.20
2023-06-05T14:41:04.583Z,2.13
2023-06-05T14:43:31.272Z,2.50
2023-06-05T14:45:58.027Z,2.47
2023-06-05T14:48:24.926Z,2.90
2023-06-05T14:50:51.760Z,2.60
2023-06-05T14:53:18.641Z,2.50
2023-06-05T14:55:46.184Z,2.53
2023-06-05T14:58:12.917Z,2.77
2023-06-05T15:00:42.324Z,2.47
2023-06-05T15:03:09.706Z,3.05
2023-06-05T15:05:36.595Z,2.50
2023-06-05T15:08:03.695Z,2.72
2023-06-05T15:10:30.722Z,2.17
2023-06-05T15:12:57.607Z,2.50
2023-06-05T15:15:27.565Z,2.75
2023-06-05T15:17:54.290Z,2.50
2023-06-05T15:20:24.673Z,2.58
2023-06-05T15:23:11.405Z,3.20
2023-06-05T15:25:40.742Z,7.40
2023-06-05T15:28:07.453Z,3.03
2023-06-05T15:30:34.199Z,2.55
2023-06-05T15:33:01.119Z,2.50
2023-06-05T15:35:27.822Z,2.20
2023-06-05T15:37:54.618Z,2.63
2023-06-05T15:40:21.404Z,2.60
2023-06-05T15:43:03.490Z,2.70
2023-06-05T15:45:30.191Z,3.13
2023-06-05T15:47:56.870Z,2.50
2023-06-05T15:50:23.757Z,2.25
2023-06-05T15:52:50.799Z,2.90
2023-06-05T15:55:17.561Z,2.53
2023-06-05T15:57:44.433Z,2.85
2023-06-05T16:00:11.607Z,2.80
2023-06-05T16:02:41.320Z,2.45
2023-06-05T16:05:09.056Z,2.60
2023-06-05T16:07:36.021Z,5.07
2023-06-05T16:10:03.255Z,3.17
2023-06-05T16:12:29.970Z,2.57
2023-06-05T16:14:56.907Z,2.33
2023-06-05T16:17:23.977Z,2.85
2023-06-05T16:19:52.949Z,2.65
2023-06-05T16:22:20.578Z,2.72
2023-06-05T16:24:47.309Z,2.90
2023-06-05T16:27:14.274Z,2.40
2023-06-05T16:29:41.068Z,2.70
2023-06-05T16:32:08.081Z,2.80
2023-06-05T16:34:34.939Z,3.05
2023-06-05T16:37:01.758Z,2.43
2023-06-05T16:39:28.576Z,2.78
2023-06-05T16:41:55.345Z,2.78
2023-06-05T16:44:22.260Z,3.05
2023-06-05T16:46:49.155Z,2.90
2023-06-05T16:49:15.965Z,2.60
2023-06-05T16:51:42.754Z,2.88
2023-06-05T16:54:09.499Z,3.20
2023-06-05T16:56:36.446Z,3.03
2023-06-05T16:59:13.589Z,2.90
2023-06-05T17:01:40.377Z,3.07
2023-06-05T17:04:08.885Z,3.10
2023-06-05T17:06:36.399Z,3.42
2023-06-05T17:09:03.696Z,2.83
2023-06-05T17:11:30.618Z,2.75
2023-06-05T17:13:57.322Z,2.97
2023-06-05T17:16:24.339Z,2.80
2023-06-05T17:18:51.106Z,2.58
2023-06-05T17:21:17.979Z,3.25
2023-06-05T17:23:44.908Z,3.15
2023-06-05T17:26:11.638Z,3.00
2023-06-05T17:28:41.199Z,2.80
2023-06-05T17:31:08.379Z,2.90
2023-06-05T17:33:35.344Z,3.08
2023-06-05T17:36:02.126Z,2.72
2023-06-05T17:38:28.783Z,2.77
2023-06-05T17:40:55.420Z,3.47
2023-06-05T17:43:22.244Z,3.50
2023-06-05T17:45:49.098Z,3.45
2023-06-05T17:48:16.150Z,4.07
2023-06-05T17:50:44.067Z,3.40
2023-06-05T17:53:10.962Z,4.03
2023-06-05T17:55:37.691Z,3.58
2023-06-05T17:58:04.463Z,4.03
2023-06-05T18:00:31.575Z,3.50
2023-06-05T18:02:58.729Z,4.17
2023-06-05T18:05:28.294Z,4.82
2023-06-05T18:07:54.967Z,4.30
2023-06-05T18:10:22.033Z,3.42
2023-06-05T18:12:49.107Z,3.15
2023-06-05T18:15:15.917Z,3.33
2023-06-05T18:17:42.631Z,3.10
2023-06-05T18:20:10.050Z,3.03
2023-06-05T18:22:36.845Z,4.38
2023-06-05T18:25:04.079Z,3.60
2023-06-05T18:27:30.764Z,3.50
2023-06-05T18:29:57.458Z,3.10
2023-06-05T18:32:24.153Z,3.03
2023-06-05T18:34:50.927Z,3.15
2023-06-05T18:37:17.658Z,3.10
2023-06-05T18:39:44.557Z,3.17
2023-06-05T18:42:11.302Z,3.35
2023-06-05T18:44:38.892Z,3.30
2023-06-05T18:47:07.787Z,3.65
2023-06-05T18:49:34.551Z,3.58
2023-06-05T18:52:03.006Z,3.73
2023-06-05T18:54:29.870Z,3.10
2023-06-05T18:56:56.611Z,3.35
2023-06-05T18:59:23.255Z,3.40
2023-06-05T19:01:50.096Z,3.53
2023-06-05T19:04:16.840Z,3.93
2023-06-05T19:06:43.884Z,2.88
2023-06-05T19:09:10.549Z,2.20
2023-06-05T19:11:38.931Z,2.42
2023-06-05T19:14:05.910Z,2.40
2023-06-05T19:16:32.913Z,2.30
2023-06-05T19:18:59.797Z,2.13
2023-06-05T19:21:26.738Z,2.67
2023-06-05T19:23:53.502Z,2.17
2023-06-05T19:26:20.236Z,2.22
2023-06-05T19:28:46.915Z,2.40
2023-06-05T19:31:13.838Z,2.20
2023-06-05T19:33:41.593Z,2.10
2023-06-05T19:36:08.620Z,2.38
2023-06-05T19:38:35.504Z,2.13
2023-06-05T19:41:02.211Z,2.20
2023-06-05T19:43:29.271Z,2.00
2023-06-05T19:45:56.142Z,2.20
2023-06-05T19:48:23.036Z,2.38
2023-06-05T19:50:49.897Z,2.35
2023-06-05T19:53:19.589Z,2.40
2023-06-05T19:55:46.590Z,2.35
2023-06-05T19:58:13.464Z,2.15
2023-06-05T20:00:41.650Z,2.70
2023-06-05T20:03:08.512Z,2.55
2023-06-05T20:05:35.236Z,2.80
2023-06-05T20:08:02.023Z,2.25
2023-06-05T20:10:29.249Z,2.10
2023-06-05T20:12:55.950Z,2.40
2023-06-05T20:15:22.584Z,1.75
2023-06-05T20:17:49.317Z,2.13
2023-06-05T20:20:16.010Z,1.92
2023-06-05T20:22:42.717Z,2.00
2023-06-05T20:25:09.916Z,1.83
2023-06-05T20:27:36.778Z,2.00
2023-06-05T20:30:03.626Z,2.27
2023-06-05T20:32:30.327Z,2.00
2023-06-05T20:34:57.097Z,2.10
2023-06-05T20:37:23.728Z,2.10
2023-06-05T20:39:50.404Z,2.05
2023-06-05T20:42:17.138Z,2.07
2023-06-05T20:44:43.912Z,2.10
2023-06-05T20:47:10.714Z,2.28
2023-06-05T20:49:37.426Z,2.28
2023-06-05T20:52:04.655Z,2.17
2023-06-05T20:54:31.390Z,2.00
2023-06-05T20:57:09.078Z,2.20
2023-06-05T20:59:35.775Z,2.50
2023-06-05T21:02:02.547Z,2.20
2023-06-05T21:04:29.579Z,2.28
2023-06-05T21:06:56.302Z,2.07
2023-06-05T21:09:23.103Z,2.22
2023-06-05T21:11:49.846Z,2.28
2023-06-05T21:14:16.525Z,2.20
2023-06-05T21:16:43.279Z,2.30
2023-06-05T21:19:10.002Z,2.67
2023-06-05T21:21:36.696Z,2.50
2023-06-05T21:24:03.595Z,2.70
2023-06-05T21:26:30.474Z,2.50
2023-06-05T21:28:57.253Z,2.40
2023-06-05T21:31:23.956Z,2.60
2023-06-05T21:33:50.778Z,2.40
2023-06-05T21:36:17.705Z,2.65
2023-06-05T21:38:44.557Z,2.60
2023-06-05T21:41:11.474Z,2.50
2023-06-05T21:43:38.312Z,2.40
2023-06-05T21:46:05.097Z,2.53
2023-06-05T21:48:31.840Z,2.67
2023-06-05T21:50:58.546Z,2.45
2023-06-05T21:53:25.452Z,2.60
2023-06-05T21:55:52.124Z,2.57
2023-06-05T21:58:18.901Z,2.78
2023-06-05T22:00:45.716Z,2.60
2023-06-05T22:03:12.499Z,2.75
2023-06-05T22:05:39.278Z,2.85
2023-06-05T22:08:06.084Z,2.60
2023-06-05T22:10:32.795Z,2.50
2023-06-05T22:12:59.523Z,2.45
2023-06-05T22:15:26.190Z,2.60
2023-06-05T22:17:53.113Z,3.00
2023-06-05T22:20:19.867Z,2.33
2023-06-05T22:22:46.738Z,2.50
2023-06-05T22:25:13.690Z,2.40
2023-06-05T22:27:40.384Z,2.40
2023-06-05T22:30:07.915Z,2.28
2023-06-05T22:32:35.810Z,2.17
2023-06-05T22:35:02.508Z,2.38
2023-06-05T22:37:29.267Z,2.30
2023-06-05T22:39:56.121Z,2.50
2023-06-05T22:42:22.873Z,2.30
2023-06-05T22:44:49.606Z,2.30
2023-06-05T22:47:16.261Z,2.10
2023-06-05T22:49:43.312Z,2.17
2023-06-05T22:52:10.192Z,1.90
2023-06-05T22:54:37.383Z,1.98
2023-06-05T22:57:04.495Z,2.00
2023-06-05T22:59:31.492Z,2.10
2023-06-05T23:01:58.598Z,2.10
2023-06-05T23:04:25.389Z,2.00
2023-06-05T23:06:52.612Z,2.38
2023-06-05T23:09:20.295Z,1.80
2023-06-05T23:11:47.157Z,1.88
2023-06-05T23:14:14.132Z,1.92
2023-06-05T23:16:40.831Z,1.92
2023-06-05T23:19:07.609Z,1.88
2023-06-05T23:21:34.302Z,2.10
2023-06-05T23:24:01.124Z,1.67
2023-06-05T23:26:27.963Z,1.73
2023-06-05T23:28:54.744Z,1.70
2023-06-05T23:31:21.501Z,1.80
2023-06-05T23:33:48.314Z,1.60
2023-06-05T23:36:15.104Z,1.90
2023-06-05T23:38:41.880Z,1.98
2023-06-05T23:41:08.702Z,1.90
2023-06-05T23:43:35.541Z,2.00
2023-06-05T23:46:02.392Z,1.60
2023-06-05T23:48:29.144Z,1.80
2023-06-05T23:50:55.968Z,1.73
2023-06-05T23:53:22.638Z,1.40
2023-06-05T23:55:49.385Z,1.73
2023-06-05T23:58:16.103Z,1.63
